createdAt,value
2018-03-08T00:00:40.845Z,4.30
2018-03-08T00:01:30.008Z,4.43
2018-03-08T00:02:19.072Z,4.38
2018-03-08T00:03:08.120Z,4.35
2018-03-08T00:03:57.198Z,4.50
2018-03-08T00:04:46.248Z,4.54
2018-03-08T00:05:35.292Z,4.55
2018-03-08T00:06:24.357Z,4.62
2018-03-08T00:07:13.487Z,4.67
2018-03-08T00:08:02.534Z,4.69
2018-03-08T00:08:51.593Z,4.81
2018-03-08T00:09:40.636Z,4.77
2018-03-08T00:10:29.687Z,4.80
2018-03-08T00:11:19.107Z,4.80
2018-03-08T00:12:08.156Z,4.85
2018-03-08T00:12:57.256Z,4.85
2018-03-08T00:13:46.327Z,4.79
2018-03-08T00:14:35.364Z,4.70
2018-03-08T00:15:24.420Z,4.61
2018-03-08T00:16:13.592Z,4.56
2018-03-08T00:17:02.676Z,4.60
2018-03-08T00:17:51.722Z,4.64
2018-03-08T00:18:40.768Z,4.75
2018-03-08T00:19:29.807Z,4.72
2018-03-08T00:20:18.848Z,4.72
2018-03-08T00:21:07.890Z,4.76
2018-03-08T00:21:56.986Z,4.78
2018-03-08T00:22:46.027Z,4.77
2018-03-08T00:23:35.078Z,4.90
2018-03-08T00:24:24.118Z,4.96
2018-03-08T00:25:13.164Z,5.02
2018-03-08T00:26:02.222Z,5.07
2018-03-08T00:26:51.278Z,5.10
2018-03-08T00:27:40.430Z,5.07
2018-03-08T00:28:29.480Z,5.03
2018-03-08T00:29:18.520Z,4.92
2018-03-08T00:30:07.825Z,4.87
2018-03-08T00:30:56.880Z,4.88
2018-03-08T00:31:45.924Z,4.86
2018-03-08T00:32:34.978Z,4.92
2018-03-08T00:33:24.211Z,4.97
2018-03-08T00:34:13.272Z,5.05
2018-03-08T00:35:02.334Z,5.18
2018-03-08T00:35:51.455Z,5.24
2018-03-08T00:36:40.504Z,5.30
2018-03-08T00:37:29.544Z,5.35
2018-03-08T00:38:18.604Z,5.31
2018-03-08T00:39:07.647Z,5.31
2018-03-08T00:39:56.682Z,5.27
2018-03-08T00:40:45.716Z,5.25
2018-03-08T00:41:34.825Z,5.06
2018-03-08T00:42:23.962Z,4.94
2018-03-08T00:43:13.009Z,4.83
2018-03-08T00:44:02.062Z,4.81
2018-03-08T00:44:51.103Z,4.84
2018-03-08T00:45:40.148Z,4.87
2018-03-08T00:46:29.182Z,4.90
2018-03-08T00:47:18.226Z,4.86
2018-03-08T00:48:07.381Z,4.86
2018-03-08T00:48:56.428Z,4.79
2018-03-08T00:49:45.478Z,4.81
2018-03-08T00:50:34.523Z,4.85
2018-03-08T00:51:23.647Z,4.84
2018-03-08T00:52:12.719Z,4.85
2018-03-08T00:53:01.782Z,4.92
2018-03-08T00:53:50.859Z,5.02
2018-03-08T00:54:39.907Z,5.08
2018-03-08T00:55:28.963Z,5.11
2018-03-08T00:56:18.043Z,5.17
2018-03-08T00:57:07.103Z,5.21
2018-03-08T00:57:56.208Z,5.22
2018-03-08T00:58:45.253Z,5.23
2018-03-08T00:59:34.474Z,5.14
2018-03-08T01:00:25.496Z,5.18
2018-03-08T01:01:14.531Z,5.21
2018-03-08T01:02:03.580Z,5.26
2018-03-08T01:02:52.620Z,5.21
2018-03-08T01:03:41.669Z,5.17
2018-03-08T01:04:30.708Z,5.16
2018-03-08T01:05:19.751Z,5.11
2018-03-08T01:06:08.863Z,5.12
2018-03-08T01:06:57.951Z,5.15
2018-03-08T01:07:47.005Z,5.19
2018-03-08T01:08:36.062Z,5.18
2018-03-08T01:09:25.112Z,5.18
2018-03-08T01:10:14.264Z,5.11
2018-03-08T01:11:03.313Z,5.08
2018-03-08T01:11:52.377Z,5.07
2018-03-08T01:12:41.433Z,5.01
2018-03-08T01:13:30.485Z,4.96
2018-03-08T01:14:19.522Z,4.93
2018-03-08T01:15:08.558Z,4.91
2018-03-08T01:15:57.641Z,4.85
2018-03-08T01:16:46.686Z,4.92
2018-03-08T01:17:36.776Z,4.98
2018-03-08T01:18:25.828Z,5.00
2018-03-08T01:19:14.878Z,5.03
2018-03-08T01:20:03.966Z,4.98
2018-03-08T01:20:53.008Z,4.93
2018-03-08T01:21:42.213Z,4.77
2018-03-08T01:22:31.261Z,4.72
2018-03-08T01:23:20.309Z,4.74
2018-03-08T01:24:09.371Z,4.67
2018-03-08T01:24:58.413Z,4.67
2018-03-08T01:25:47.552Z,4.73
2018-03-08T01:26:36.602Z,4.68
2018-03-08T01:27:25.646Z,4.64
2018-03-08T01:28:14.715Z,4.68
2018-03-08T01:29:03.759Z,4.68
2018-03-08T01:29:52.803Z,4.70
2018-03-08T01:30:41.839Z,4.70
2018-03-08T01:31:30.936Z,4.64
2018-03-08T01:32:19.984Z,4.61
2018-03-08T01:33:09.236Z,4.58
2018-03-08T01:33:58.273Z,4.54
2018-03-08T01:34:47.597Z,4.51
2018-03-08T01:35:36.680Z,4.53
2018-03-08T01:36:29.548Z,4.68
2018-03-08T01:37:18.593Z,4.68
2018-03-08T01:38:07.672Z,4.73
2018-03-08T01:38:56.712Z,4.75
2018-03-08T01:39:45.758Z,4.79
2018-03-08T01:40:34.802Z,4.79
2018-03-08T01:41:23.971Z,4.83
2018-03-08T01:42:13.007Z,4.86
2018-03-08T01:43:02.062Z,4.88
2018-03-08T01:43:51.127Z,4.87
2018-03-08T01:44:40.274Z,4.95
2018-03-08T01:45:29.328Z,4.96
2018-03-08T01:46:18.368Z,4.96
2018-03-08T01:47:07.407Z,4.89
2018-03-08T01:47:56.480Z,4.92
2018-03-08T01:48:45.563Z,4.85
2018-03-08T01:49:34.604Z,4.64
2018-03-08T01:50:23.711Z,4.69
2018-03-08T01:51:12.755Z,4.51
2018-03-08T01:52:11.634Z,4.43
2018-03-08T01:53:00.713Z,4.42
2018-03-08T01:53:49.752Z,4.43
2018-03-08T01:54:38.797Z,4.54
2018-03-08T01:55:27.912Z,4.58
2018-03-08T01:56:16.968Z,4.54
2018-03-08T01:57:06.017Z,4.53
2018-03-08T01:57:55.052Z,4.52
2018-03-08T01:58:44.093Z,4.57
2018-03-08T01:59:33.149Z,4.60
2018-03-08T02:00:22.456Z,4.70
2018-03-08T02:01:11.544Z,4.76
2018-03-08T02:02:00.608Z,4.81
2018-03-08T02:02:49.704Z,4.90
2018-03-08T02:03:38.742Z,4.95
2018-03-08T02:04:27.794Z,4.97
2018-03-08T02:05:16.840Z,5.02
2018-03-08T02:06:05.902Z,4.96
2018-03-08T02:06:54.952Z,4.98
2018-03-08T02:07:44.093Z,4.91
2018-03-08T02:08:33.140Z,4.90
2018-03-08T02:09:22.186Z,4.77
2018-03-08T02:10:11.233Z,4.69
2018-03-08T02:11:00.300Z,4.50
2018-03-08T02:11:49.359Z,4.45
2018-03-08T02:12:38.399Z,4.30
2018-03-08T02:13:27.508Z,4.23
2018-03-08T02:14:16.551Z,4.18
2018-03-08T02:15:05.610Z,4.25
2018-03-08T02:15:54.781Z,4.31
2018-03-08T02:16:43.825Z,4.31
2018-03-08T02:17:32.875Z,4.40
2018-03-08T02:18:22.014Z,4.47
2018-03-08T02:19:11.125Z,4.26
2018-03-08T02:20:00.179Z,4.05
2018-03-08T02:20:49.234Z,3.94
2018-03-08T02:21:38.271Z,3.91
2018-03-08T02:22:27.308Z,3.81
2018-03-08T02:23:16.366Z,3.84
2018-03-08T02:24:05.444Z,3.92
2018-03-08T02:24:54.620Z,4.07
2018-03-08T02:25:43.681Z,4.14
2018-03-08T02:26:32.721Z,4.18
2018-03-08T02:27:21.771Z,4.11
2018-03-08T02:28:10.841Z,4.00
2018-03-08T02:28:59.891Z,3.91
2018-03-08T02:29:48.931Z,3.83
2018-03-08T02:30:38.100Z,3.85
2018-03-08T02:31:27.153Z,3.88
2018-03-08T02:32:16.186Z,4.01
2018-03-08T02:33:05.232Z,4.00
2018-03-08T02:33:54.273Z,4.08
2018-03-08T02:34:43.310Z,4.05
2018-03-08T02:35:32.367Z,4.00
2018-03-08T02:36:21.581Z,3.95
2018-03-08T02:37:10.640Z,4.01
2018-03-08T02:37:59.681Z,4.24
2018-03-08T02:38:48.729Z,4.34
2018-03-08T02:39:37.803Z,4.33
2018-03-08T02:40:26.843Z,4.38
2018-03-08T02:41:15.883Z,4.38
2018-03-08T02:42:04.981Z,4.43
2018-03-08T02:42:54.036Z,4.54
2018-03-08T02:43:43.081Z,4.59
2018-03-08T02:44:32.141Z,4.63
2018-03-08T02:45:21.574Z,4.66
2018-03-08T02:46:10.719Z,4.67
2018-03-08T02:46:59.903Z,4.66
2018-03-08T02:47:48.954Z,4.60
2018-03-08T02:48:38.003Z,4.58
2018-03-08T02:49:27.049Z,4.76
2018-03-08T02:50:16.098Z,4.85
2018-03-08T02:51:05.141Z,4.76
2018-03-08T02:51:54.256Z,4.72
2018-03-08T02:52:43.306Z,4.75
2018-03-08T02:53:32.357Z,4.81
2018-03-08T02:54:21.398Z,4.84
2018-03-08T02:55:10.439Z,4.86
2018-03-08T02:55:59.513Z,4.85
2018-03-08T02:56:48.596Z,4.82
2018-03-08T02:57:37.656Z,4.71
2018-03-08T02:58:26.691Z,4.51
2018-03-08T02:59:15.756Z,4.58
2018-03-08T03:00:04.815Z,4.61
2018-03-08T03:00:53.854Z,4.60
2018-03-08T03:01:42.896Z,4.63
2018-03-08T03:02:32.055Z,4.68
2018-03-08T03:03:21.162Z,4.69
2018-03-08T03:04:10.310Z,4.65
2018-03-08T03:04:59.365Z,4.45
2018-03-08T03:05:48.412Z,4.37
2018-03-08T03:06:37.462Z,4.31
2018-03-08T03:07:26.527Z,4.38
2018-03-08T03:08:15.579Z,4.36
2018-03-08T03:09:04.702Z,4.41
2018-03-08T03:09:53.834Z,4.42
2018-03-08T03:10:42.900Z,4.40
2018-03-08T03:11:31.950Z,4.48
2018-03-08T03:12:21.007Z,4.47
2018-03-08T03:13:10.051Z,4.60
2018-03-08T03:13:59.113Z,4.67
2018-03-08T03:14:48.169Z,4.66
2018-03-08T03:15:37.272Z,4.59
2018-03-08T03:16:26.315Z,4.63
2018-03-08T03:17:15.371Z,4.71
2018-03-08T03:18:04.453Z,4.74
2018-03-08T03:18:53.635Z,4.74
2018-03-08T03:19:42.679Z,4.60
2018-03-08T03:20:31.851Z,4.42
2018-03-08T03:21:20.900Z,4.39
2018-03-08T03:22:09.953Z,4.41
2018-03-08T03:22:59.005Z,4.53
2018-03-08T03:23:48.043Z,4.67
2018-03-08T03:24:37.084Z,4.68
2018-03-08T03:25:26.193Z,4.38
2018-03-08T03:26:15.244Z,4.22
2018-03-08T03:27:04.294Z,4.12
2018-03-08T03:27:53.342Z,4.01
2018-03-08T03:28:42.392Z,3.93
2018-03-08T03:29:31.444Z,3.95
2018-03-08T03:30:20.541Z,3.98
2018-03-08T03:31:09.661Z,4.09
2018-03-08T03:31:58.704Z,4.18
2018-03-08T03:32:47.754Z,4.25
2018-03-08T03:33:36.803Z,4.24
2018-03-08T03:34:25.879Z,4.24
2018-03-08T03:35:14.936Z,4.24
2018-03-08T03:36:04.395Z,4.30
2018-03-08T03:36:53.427Z,4.19
2018-03-08T03:37:42.465Z,4.21
2018-03-08T03:38:31.515Z,4.24
2018-03-08T03:39:20.560Z,4.29
2018-03-08T03:40:09.603Z,4.38
2018-03-08T03:40:58.648Z,4.43
2018-03-08T03:41:47.756Z,4.43
2018-03-08T03:42:36.805Z,4.49
2018-03-08T03:43:25.856Z,4.56
2018-03-08T03:44:14.915Z,4.61
2018-03-08T03:45:03.986Z,4.64
2018-03-08T03:45:53.025Z,4.70
2018-03-08T03:46:42.070Z,4.68
2018-03-08T03:47:31.199Z,4.62
2018-03-08T03:48:20.288Z,4.65
2018-03-08T03:49:09.350Z,4.70
2018-03-08T03:49:58.399Z,4.73
2018-03-08T03:50:47.435Z,4.66
2018-03-08T03:51:36.490Z,4.61
2018-03-08T03:52:25.537Z,4.69
2018-03-08T03:53:14.632Z,4.70
2018-03-08T03:54:03.676Z,4.62
2018-03-08T03:54:52.734Z,4.58
2018-03-08T03:55:41.800Z,4.64
2018-03-08T03:56:30.845Z,4.60
2018-03-08T03:57:19.897Z,4.58
2018-03-08T03:58:08.935Z,4.58
2018-03-08T03:58:58.036Z,4.49
2018-03-08T03:59:47.081Z,4.44
2018-03-08T04:00:36.134Z,4.47
2018-03-08T04:01:25.186Z,4.48
2018-03-08T04:02:17.361Z,4.47
2018-03-08T04:03:06.413Z,4.51
2018-03-08T04:03:55.466Z,4.58
2018-03-08T04:04:44.611Z,4.61
2018-03-08T04:05:33.652Z,4.62
2018-03-08T04:06:22.702Z,4.45
2018-03-08T04:07:11.965Z,4.31
2018-03-08T04:08:01.028Z,4.29
2018-03-08T04:08:50.062Z,4.31
2018-03-08T04:09:39.105Z,4.22
2018-03-08T04:10:28.192Z,4.06
2018-03-08T04:11:17.251Z,4.04
2018-03-08T04:12:06.314Z,3.87
2018-03-08T04:12:55.368Z,3.95
2018-03-08T04:13:44.414Z,3.95
2018-03-08T04:14:33.458Z,3.90
2018-03-08T04:15:22.533Z,3.91
2018-03-08T04:16:11.624Z,3.85
2018-03-08T04:17:00.685Z,3.79
2018-03-08T04:17:49.733Z,3.98
2018-03-08T04:18:38.781Z,3.96
2018-03-08T04:19:27.953Z,4.05
2018-03-08T04:20:17.000Z,4.14
2018-03-08T04:21:06.045Z,4.30
2018-03-08T04:21:55.259Z,4.28
2018-03-08T04:22:44.305Z,4.24
2018-03-08T04:23:33.355Z,4.05
2018-03-08T04:24:22.387Z,3.81
2018-03-08T04:25:11.443Z,3.73
2018-03-08T04:26:00.493Z,3.80
2018-03-08T04:26:49.534Z,3.96
2018-03-08T04:27:38.687Z,4.03
2018-03-08T04:28:27.737Z,4.11
2018-03-08T04:29:16.794Z,4.14
2018-03-08T04:30:05.831Z,4.08
2018-03-08T04:30:54.866Z,4.13
2018-03-08T04:31:43.952Z,4.12
2018-03-08T04:32:33.032Z,4.17
2018-03-08T04:33:22.080Z,4.07
2018-03-08T04:34:11.496Z,4.06
2018-03-08T04:35:00.544Z,3.97
2018-03-08T04:35:49.598Z,3.83
2018-03-08T04:36:38.648Z,3.77
2018-03-08T04:37:27.744Z,3.78
2018-03-08T04:38:16.794Z,3.85
2018-03-08T04:39:05.839Z,4.00
2018-03-08T04:39:54.880Z,4.06
2018-03-08T04:40:43.915Z,4.12
2018-03-08T04:41:33.111Z,4.20
2018-03-08T04:42:22.153Z,4.24
2018-03-08T04:43:11.208Z,4.21
2018-03-08T04:44:00.259Z,4.20
2018-03-08T04:44:49.330Z,4.15
2018-03-08T04:45:38.389Z,4.24
2018-03-08T04:46:27.430Z,4.27
2018-03-08T04:47:16.683Z,4.29
2018-03-08T04:48:05.725Z,4.29
2018-03-08T04:48:54.816Z,4.30
2018-03-08T04:49:43.837Z,4.36
2018-03-08T04:50:32.939Z,4.33
2018-03-08T04:51:22.080Z,4.37
2018-03-08T04:52:11.158Z,4.42
2018-03-08T04:53:00.193Z,4.43
2018-03-08T04:53:49.277Z,4.39
2018-03-08T04:54:38.527Z,4.43
2018-03-08T04:55:27.579Z,4.54
2018-03-08T04:56:21.659Z,4.65
2018-03-08T04:57:11.388Z,4.69
2018-03-08T04:58:00.490Z,4.84
2018-03-08T04:58:49.530Z,4.94
2018-03-08T04:59:38.668Z,4.89
2018-03-08T05:00:27.747Z,4.89
2018-03-08T05:01:16.802Z,4.92
2018-03-08T05:02:05.906Z,4.87
2018-03-08T05:02:54.970Z,4.89
2018-03-08T05:03:44.019Z,4.83
2018-03-08T05:04:33.059Z,4.78
2018-03-08T05:05:22.158Z,4.65
2018-03-08T05:06:11.198Z,4.52
2018-03-08T05:07:00.318Z,4.58
2018-03-08T05:07:49.367Z,4.60
2018-03-08T05:08:38.416Z,4.59
2018-03-08T05:09:27.472Z,4.61
2018-03-08T05:10:17.135Z,4.63
2018-03-08T05:11:06.368Z,4.69
2018-03-08T05:11:55.436Z,4.66
2018-03-08T05:12:44.490Z,4.57
2018-03-08T05:13:33.562Z,4.58
2018-03-08T05:14:22.694Z,4.56
2018-03-08T05:15:11.749Z,4.52
2018-03-08T05:16:00.794Z,4.55
2018-03-08T05:16:49.862Z,4.57
2018-03-08T05:17:39.048Z,4.59
2018-03-08T05:18:28.192Z,4.72
2018-03-08T05:19:17.230Z,4.80
2018-03-08T05:20:06.263Z,4.81
2018-03-08T05:20:55.315Z,4.84
2018-03-08T05:21:44.376Z,4.87
2018-03-08T05:22:33.412Z,4.83
2018-03-08T05:23:22.469Z,4.80
2018-03-08T05:24:11.653Z,4.81
2018-03-08T05:25:00.755Z,4.81
2018-03-08T05:25:49.802Z,4.80
2018-03-08T05:26:38.854Z,4.78
2018-03-08T05:27:27.891Z,4.77
2018-03-08T05:28:17.102Z,4.80
2018-03-08T05:29:06.575Z,4.80
2018-03-08T05:29:55.608Z,4.77
2018-03-08T05:30:44.661Z,4.81
2018-03-08T05:31:33.768Z,4.85
2018-03-08T05:32:22.813Z,4.83
2018-03-08T05:33:11.876Z,4.81
2018-03-08T05:34:00.913Z,4.83
2018-03-08T05:34:49.949Z,4.84
2018-03-08T05:35:38.993Z,4.87
2018-03-08T05:36:28.037Z,4.77
2018-03-08T05:37:17.209Z,4.74
2018-03-08T05:38:06.324Z,4.70
2018-03-08T05:38:55.375Z,4.74
2018-03-08T05:39:44.405Z,4.72
2018-03-08T05:40:33.506Z,4.75
2018-03-08T05:41:22.569Z,4.76
2018-03-08T05:42:11.612Z,4.83
2018-03-08T05:43:00.716Z,4.77
2018-03-08T05:43:49.773Z,4.72
2018-03-08T05:44:38.837Z,4.72
2018-03-08T05:45:27.886Z,4.70
2018-03-08T05:46:16.939Z,4.69
2018-03-08T05:47:05.989Z,4.74
2018-03-08T05:47:55.078Z,4.78
2018-03-08T05:48:44.128Z,4.72
2018-03-08T05:49:33.180Z,4.76
2018-03-08T05:50:22.218Z,4.77
2018-03-08T05:51:11.266Z,4.87
2018-03-08T05:52:00.318Z,4.88
2018-03-08T05:52:49.368Z,4.86
2018-03-08T05:53:38.504Z,4.88
2018-03-08T05:54:27.612Z,4.89
2018-03-08T05:55:16.631Z,4.93
2018-03-08T05:56:05.692Z,5.01
2018-03-08T05:56:54.747Z,4.97
2018-03-08T05:57:44.295Z,4.96
2018-03-08T05:58:33.354Z,5.18
2018-03-08T05:59:22.505Z,5.20
2018-03-08T06:00:11.562Z,5.27
2018-03-08T06:01:00.597Z,5.31
2018-03-08T06:01:49.642Z,5.27
2018-03-08T06:02:38.688Z,5.33
2018-03-08T06:03:27.779Z,5.25
2018-03-08T06:04:16.836Z,5.26
2018-03-08T06:05:05.924Z,5.25
2018-03-08T06:05:54.978Z,5.31
2018-03-08T06:06:44.038Z,5.37
2018-03-08T06:07:33.084Z,5.31
2018-03-08T06:08:22.343Z,5.28
2018-03-08T06:09:11.454Z,5.25
2018-03-08T06:10:00.505Z,5.24
2018-03-08T06:10:49.581Z,5.27
2018-03-08T06:11:38.639Z,5.32
2018-03-08T06:12:27.686Z,5.32
2018-03-08T06:13:16.830Z,5.38
2018-03-08T06:14:06.103Z,5.38
2018-03-08T06:14:55.145Z,5.42
2018-03-08T06:15:44.201Z,5.46
2018-03-08T06:16:33.265Z,5.57
2018-03-08T06:17:22.319Z,5.58
2018-03-08T06:18:11.381Z,5.64
2018-03-08T06:19:00.483Z,5.72
2018-03-08T06:19:49.530Z,5.72
2018-03-08T06:20:38.899Z,5.75
2018-03-08T06:21:27.954Z,5.82
2018-03-08T06:22:17.011Z,5.84
2018-03-08T06:23:06.060Z,5.73
2018-03-08T06:23:55.113Z,5.57
2018-03-08T06:24:44.199Z,5.54
2018-03-08T06:25:33.257Z,5.58
2018-03-08T06:26:22.312Z,5.53
2018-03-08T06:27:11.377Z,5.48
2018-03-08T06:28:00.432Z,5.42
2018-03-08T06:28:49.482Z,5.38
2018-03-08T06:29:38.541Z,5.46
2018-03-08T06:30:27.856Z,5.42
2018-03-08T06:31:16.905Z,5.27
2018-03-08T06:32:05.956Z,5.23
2018-03-08T06:32:55.013Z,5.30
2018-03-08T06:33:44.071Z,5.32
2018-03-08T06:34:33.126Z,5.28
2018-03-08T06:35:22.171Z,5.23
2018-03-08T06:36:11.848Z,5.27
2018-03-08T06:37:01.065Z,5.27
2018-03-08T06:37:50.109Z,5.35
2018-03-08T06:38:39.156Z,5.54
2018-03-08T06:39:28.211Z,5.55
2018-03-08T06:40:17.339Z,5.72
2018-03-08T06:41:06.388Z,5.74
2018-03-08T06:41:55.433Z,5.80
2018-03-08T06:42:44.482Z,5.83
2018-03-08T06:43:33.753Z,5.92
2018-03-08T06:44:22.791Z,5.99
2018-03-08T06:45:11.835Z,6.07
2018-03-08T06:46:00.949Z,6.00
2018-03-08T06:46:50.069Z,6.01
2018-03-08T06:47:39.273Z,6.11
2018-03-08T06:48:28.325Z,6.05
2018-03-08T06:49:17.369Z,6.11
2018-03-08T06:50:06.420Z,6.14
2018-03-08T06:50:55.470Z,6.19
2018-03-08T06:51:44.518Z,6.20
2018-03-08T06:52:33.560Z,6.15
2018-03-08T06:53:22.727Z,6.15
2018-03-08T06:54:11.808Z,6.06
2018-03-08T06:55:00.854Z,5.99
2018-03-08T06:55:49.899Z,6.04
2018-03-08T06:56:38.950Z,6.16
2018-03-08T06:57:28.011Z,6.22
2018-03-08T06:58:17.267Z,6.29
2018-03-08T06:59:06.309Z,6.48
2018-03-08T06:59:55.415Z,6.54
2018-03-08T07:00:44.460Z,6.60
2018-03-08T07:01:33.569Z,6.70
2018-03-08T07:02:22.629Z,6.73
2018-03-08T07:03:11.690Z,6.79
2018-03-08T07:04:00.743Z,6.85
2018-03-08T07:04:49.799Z,6.92
2018-03-08T07:05:38.845Z,7.01
2018-03-08T07:06:27.890Z,7.08
2018-03-08T07:07:16.988Z,7.14
2018-03-08T07:08:06.032Z,7.17
2018-03-08T07:08:55.196Z,7.26
2018-03-08T07:09:47.091Z,7.25
2018-03-08T07:10:36.143Z,7.23
2018-03-08T07:11:26.068Z,7.22
2018-03-08T07:12:15.114Z,7.25
2018-03-08T07:13:04.176Z,7.26
2018-03-08T07:13:53.240Z,7.27
2018-03-08T07:14:42.289Z,7.36
2018-03-08T07:15:31.415Z,7.44
2018-03-08T07:16:20.469Z,7.47
2018-03-08T07:17:09.528Z,7.56
2018-03-08T07:17:58.568Z,7.57
2018-03-08T07:18:47.784Z,7.52
2018-03-08T07:19:36.823Z,7.63
2018-03-08T07:20:25.882Z,7.72
2018-03-08T07:21:15.179Z,7.72
2018-03-08T07:22:04.230Z,7.69
2018-03-08T07:22:53.268Z,7.68
2018-03-08T07:23:43.089Z,7.75
2018-03-08T07:37:27.263Z,8.64
2018-03-08T07:38:16.302Z,8.51
2018-03-08T07:39:05.384Z,8.71
2018-03-08T07:39:54.441Z,8.77
2018-03-08T07:40:43.490Z,8.82
2018-03-08T07:41:32.534Z,8.82
2018-03-08T07:42:21.576Z,8.77
2018-03-08T07:43:11.055Z,8.84
2018-03-08T07:44:00.101Z,8.89
2018-03-08T07:44:49.148Z,8.59
2018-03-08T07:45:38.194Z,8.54
2018-03-08T07:46:27.247Z,8.54
2018-03-08T07:47:16.321Z,8.47
2018-03-08T07:48:05.355Z,8.57
2018-03-08T07:48:54.442Z,8.71
2018-03-08T07:49:43.536Z,8.82
2018-03-08T07:50:32.571Z,8.96
2018-03-08T07:51:21.608Z,9.05
2018-03-08T07:52:10.644Z,9.13
2018-03-08T07:52:59.689Z,9.05
2018-03-08T07:53:48.734Z,9.11
2018-03-08T07:54:37.896Z,8.82
2018-03-08T07:55:26.934Z,8.95
2018-03-08T07:56:15.984Z,8.84
2018-03-08T07:57:05.057Z,8.83
2018-03-08T07:57:54.097Z,8.84
2018-03-08T07:58:43.146Z,8.87
2018-03-08T07:59:32.531Z,8.78
2018-03-08T08:00:21.628Z,8.84
2018-03-08T08:01:10.699Z,8.72
2018-03-08T08:01:59.740Z,8.63
2018-03-08T08:02:48.798Z,8.65
2018-03-08T08:03:37.860Z,8.85
2018-03-08T08:04:38.973Z,8.99
2018-03-08T08:05:51.501Z,9.13
2018-03-08T08:06:52.099Z,8.72
2018-03-08T08:07:52.696Z,8.64
2018-03-08T08:08:54.292Z,8.79
2018-03-08T08:09:43.408Z,9.06
2018-03-08T08:10:32.487Z,9.13
2018-03-08T08:11:21.573Z,8.85
2018-03-08T08:12:10.625Z,8.77
2018-03-08T08:12:59.674Z,8.93
2018-03-08T08:13:48.742Z,9.02
2018-03-08T08:14:37.780Z,9.04
2018-03-08T08:15:26.951Z,9.03
2018-03-08T08:16:16.022Z,8.83
2018-03-08T08:17:05.109Z,8.87
2018-03-08T08:17:54.152Z,8.64
2018-03-08T08:18:43.208Z,8.70
2018-03-08T08:19:32.253Z,8.89
2018-03-08T08:20:21.402Z,9.00
2018-03-08T08:21:10.449Z,8.90
2018-03-08T08:21:59.487Z,8.74
2018-03-08T08:22:48.532Z,8.67
2018-03-08T08:23:37.589Z,8.58
2018-03-08T08:24:26.637Z,8.71
2018-03-08T08:25:15.688Z,8.76
2018-03-08T08:26:04.783Z,8.72
2018-03-08T08:26:53.847Z,8.58
2018-03-08T08:27:42.898Z,8.68
2018-03-08T08:28:31.966Z,8.39
2018-03-08T08:29:21.007Z,8.36
2018-03-08T08:30:10.052Z,8.43
2018-03-08T08:30:59.088Z,8.51
2018-03-08T08:31:48.455Z,8.61
2018-03-08T08:32:37.501Z,8.25
2018-03-08T08:33:26.566Z,8.17
2018-03-08T08:34:15.671Z,8.08
2018-03-08T08:35:04.745Z,8.12
2018-03-08T08:35:53.794Z,8.27
2018-03-08T08:36:42.842Z,8.47
2018-03-08T08:37:31.894Z,8.31
2018-03-08T08:38:21.043Z,8.18
2018-03-08T08:39:10.079Z,8.16
2018-03-08T08:39:59.123Z,8.31
2018-03-08T08:40:48.199Z,8.39
2018-03-08T08:41:37.276Z,8.46
2018-03-08T08:42:26.322Z,8.52
2018-03-08T08:43:15.366Z,8.53
2018-03-08T08:44:04.461Z,8.36
2018-03-08T08:44:53.812Z,8.21
2018-03-08T08:45:42.860Z,8.31
2018-03-08T08:46:31.895Z,8.37
2018-03-08T08:47:21.232Z,8.18
2018-03-08T08:48:10.290Z,8.29
2018-03-08T08:48:59.339Z,8.05
2018-03-08T08:49:48.383Z,7.88
2018-03-08T08:50:37.424Z,8.01
2018-03-08T08:51:26.460Z,8.13
2018-03-08T08:52:15.496Z,8.04
2018-03-08T08:53:04.611Z,7.94
2018-03-08T08:53:53.628Z,7.87
2018-03-08T08:54:42.676Z,7.84
2018-03-08T08:55:31.921Z,7.88
2018-03-08T08:56:20.964Z,8.11
2018-03-08T08:57:10.099Z,8.18
2018-03-08T08:57:59.146Z,8.20
2018-03-08T08:58:48.751Z,8.15
2018-03-08T08:59:37.803Z,8.18
2018-03-08T09:00:26.846Z,8.25
2018-03-08T09:01:15.901Z,8.19
2018-03-08T09:02:04.940Z,8.23
2018-03-08T09:02:53.979Z,8.31
2018-03-08T09:03:43.023Z,8.38
2018-03-08T09:04:32.176Z,8.54
2018-03-08T09:05:21.226Z,8.57
2018-03-08T09:06:10.289Z,8.63
2018-03-08T09:06:59.330Z,8.66
2018-03-08T09:07:48.378Z,8.73
2018-03-08T09:08:37.437Z,8.80
2018-03-08T09:09:26.507Z,8.85
2018-03-08T09:10:15.545Z,8.89
2018-03-08T09:11:04.585Z,8.98
2018-03-08T09:11:53.621Z,8.91
2018-03-08T09:12:42.669Z,8.82
2018-03-08T09:13:31.714Z,8.76
2018-03-08T09:14:20.760Z,8.82
2018-03-08T09:15:09.928Z,8.84
2018-03-08T09:15:58.978Z,8.89
2018-03-08T09:16:48.029Z,8.97
2018-03-08T09:17:37.083Z,9.03
2018-03-08T09:18:26.161Z,9.11
2018-03-08T09:19:15.207Z,9.18
2018-03-08T09:20:04.269Z,9.19
2018-03-08T09:20:53.352Z,9.21
2018-03-08T09:21:42.469Z,9.23
2018-03-08T09:22:31.537Z,9.25
2018-03-08T09:23:20.587Z,9.28
2018-03-08T09:24:09.622Z,9.36
2018-03-08T09:24:58.673Z,9.39
2018-03-08T09:25:47.712Z,9.42
2018-03-08T09:26:36.932Z,9.46
2018-03-08T09:27:25.973Z,9.49
2018-03-08T09:28:15.012Z,9.40
2018-03-08T09:29:04.063Z,9.39
2018-03-08T09:29:53.164Z,9.38
2018-03-08T09:30:42.493Z,9.37
2018-03-08T09:31:31.540Z,9.26
2018-03-08T09:32:20.629Z,9.33
2018-03-08T09:33:09.677Z,9.42
2018-03-08T09:33:58.720Z,9.27
2018-03-08T09:34:47.754Z,9.36
2018-03-08T09:35:37.017Z,9.42
2018-03-08T09:36:26.173Z,9.40
2018-03-08T09:37:15.220Z,9.41
2018-03-08T09:38:04.255Z,9.43
2018-03-08T09:38:53.294Z,9.49
2018-03-08T09:39:42.335Z,9.51
2018-03-08T09:40:31.393Z,9.49
2018-03-08T09:41:20.473Z,9.57
2018-03-08T09:42:09.642Z,9.64
2018-03-08T09:42:58.688Z,9.67
2018-03-08T09:43:47.770Z,9.72
2018-03-08T09:44:36.819Z,9.71
2018-03-08T09:45:25.859Z,9.59
2018-03-08T09:46:14.950Z,9.61
2018-03-08T09:47:04.253Z,9.65
2018-03-08T09:47:53.295Z,9.71
2018-03-08T09:48:42.541Z,9.68
2018-03-08T09:49:31.579Z,9.75
2018-03-08T09:50:20.625Z,9.63
2018-03-08T09:51:09.665Z,9.61
2018-03-08T09:51:58.724Z,9.52
2018-03-08T09:52:47.775Z,9.51
2018-03-08T09:53:36.867Z,9.54
2018-03-08T09:54:25.987Z,9.36
2018-03-08T09:55:15.037Z,9.36
2018-03-08T09:56:04.108Z,9.40
2018-03-08T09:56:53.151Z,9.43
2018-03-08T09:57:42.199Z,9.44
2018-03-08T09:58:31.236Z,9.37
2018-03-08T09:59:23.592Z,9.45
2018-03-08T10:00:12.657Z,9.52
2018-03-08T10:01:01.703Z,9.60
2018-03-08T10:01:50.745Z,9.67
2018-03-08T10:02:39.795Z,9.68
2018-03-08T10:03:28.884Z,9.74
2018-03-08T10:04:17.928Z,9.76
2018-03-08T10:05:07.093Z,9.79
2018-03-08T10:05:56.130Z,9.82
2018-03-08T10:06:45.173Z,9.81
2018-03-08T10:07:34.206Z,9.84
2018-03-08T10:08:23.244Z,9.79
2018-03-08T10:09:12.297Z,9.79
2018-03-08T10:10:01.374Z,9.80
2018-03-08T10:10:50.421Z,9.75
2018-03-08T10:11:39.470Z,9.72
2018-03-08T10:12:28.519Z,9.72
2018-03-08T10:13:17.576Z,9.74
2018-03-08T10:14:06.620Z,9.74
2018-03-08T10:14:55.664Z,9.72
2018-03-08T10:15:44.776Z,9.79
2018-03-08T10:16:33.828Z,9.72
2018-03-08T10:17:22.883Z,9.61
2018-03-08T10:18:11.929Z,9.48
2018-03-08T10:19:00.979Z,9.45
2018-03-08T10:19:52.409Z,9.34
2018-03-08T10:20:41.456Z,9.39
2018-03-08T10:21:44.516Z,9.42
2018-03-08T10:22:19.776Z,9.41
2018-03-08T10:23:08.811Z,9.34
2018-03-08T10:23:57.856Z,9.35
2018-03-08T10:24:46.895Z,9.39
2018-03-08T10:25:35.949Z,9.34
2018-03-08T10:26:25.243Z,9.30
2018-03-08T10:27:14.297Z,9.33
2018-03-08T10:28:03.345Z,9.31
2018-03-08T10:28:52.396Z,9.33
2018-03-08T10:29:41.461Z,9.15
2018-03-08T10:30:30.496Z,9.15
2018-03-08T10:31:19.536Z,9.18
2018-03-08T10:32:08.641Z,9.11
2018-03-08T10:32:57.680Z,9.13
2018-03-08T10:33:46.730Z,9.20
2018-03-08T10:34:36.020Z,9.24
2018-03-08T10:35:25.062Z,9.20
2018-03-08T10:36:14.113Z,9.17
2018-03-08T10:37:03.182Z,9.08
2018-03-08T10:37:52.275Z,9.15
2018-03-08T10:38:41.325Z,9.20
2018-03-08T10:39:30.363Z,9.22
2018-03-08T10:40:19.406Z,9.34
2018-03-08T10:41:08.514Z,9.28
2018-03-08T10:41:57.541Z,9.36
2018-03-08T10:42:46.593Z,9.10
2018-03-08T10:43:35.758Z,9.10
2018-03-08T10:44:24.786Z,9.19
2018-03-08T10:45:13.826Z,9.23
2018-03-08T10:46:02.855Z,9.35
2018-03-08T10:46:52.001Z,9.36
2018-03-08T10:47:41.065Z,9.26
2018-03-08T10:48:30.109Z,9.32
2018-03-08T10:49:19.154Z,9.37
2018-03-08T10:50:08.584Z,9.24
2018-03-08T10:50:57.636Z,9.20
2018-03-08T10:51:46.685Z,9.17
2018-03-08T10:52:35.770Z,9.16
2018-03-08T10:53:24.810Z,9.17
2018-03-08T10:54:13.854Z,9.15
2018-03-08T10:55:02.909Z,9.18
2018-03-08T10:55:51.972Z,9.03
2018-03-08T10:56:41.015Z,8.95
2018-03-08T10:57:30.068Z,9.03
2018-03-08T10:58:19.177Z,9.02
2018-03-08T10:59:08.217Z,9.07
2018-03-08T10:59:57.249Z,9.00
2018-03-08T11:00:47.242Z,9.02
2018-03-08T11:03:06.980Z,9.07
2018-03-08T11:03:55.165Z,9.14
2018-03-08T11:06:14.782Z,9.15
2018-03-08T11:07:03.836Z,9.05
2018-03-08T11:07:52.880Z,9.09
2018-03-08T11:08:41.982Z,9.04
2018-03-08T11:09:31.032Z,8.83
2018-03-08T11:10:20.074Z,8.93
2018-03-08T11:11:09.116Z,8.97